Terminal Aerodrome Forecast
Issued by NWS Twin Cities, MN

Home | Current Version | Previous Version | Graphics & Text | Print | Product List | Glossary On
Versions: 1 2 3 4 5 6 7 8 9 10 11 12 13 14 15 16 17 18 19 20 21 22 23 24 25 26 27
000
FTUS43 KMPX 271700
TAFMSP
TAF
KMSP 271720Z 2718/2824 17009KT P6SM SCT250
     FM271900 18011G17KT P6SM SCT070 SCT250
     FM280000 17005KT P6SM FEW070 SCT250
     FM281400 16005KT P6SM SCT050 SCT250
     FM281900 20006KT P6SM SCT060 SCT250=

USA.gov is the U.S. government's official web portal to all federal, state and local government web resources and services.